Polarstern — DBLK — position and weather

sailwx.info

Track history (hours):
 
Tides and Currents Weather Stations Pressure Air Temp Water Temp Dewpoint Dewpoint Depression Visibility Wind Speed Wind Dir Waves Ship Positions

Oceanographic research ship Polarstern (Germany)

Detailed information on ship capabilities available from University of Delaware's Ocean Information Center and ARCUS's ALIAS (Arctic Logistics Information and Support) project.

Last reported at 2014-Dec-29 03:34 UTC. Time now 2014-Dec-29 04:33 UTC.
Position S 70°32' W 008°04'.

Length 117.9 m; beam 25 m; draft 10.7 m.

MMSI: 211202460.

Date/timePositionNaut miles runAvg speedWind from/ knotsBaromVisibWave heightAir tempDewpointWater temp
2014-Dec-29 03:34S 70°32' W 008°04'2 3.7
2014-Dec-29 03:00S 70°30' W 008°06'2 4.8 110 / 12985.4 -8.5-9.1-1.8
2014-Dec-29 02:33S 70°32' W 008°04'2 3.7
2014-Dec-29 02:00S 70°30' W 008°06'2 4.8 120 / 16985.3 -7.6-8.5-1.8
2014-Dec-29 01:33S 70°32' W 008°04'2 3.7
2014-Dec-29 01:00S 70°30' W 008°06'2 4.8 110 / 16985.0 -6.1-7.5-1.8
2014-Dec-29 00:33S 70°32' W 008°04'2 3.7
2014-Dec-29 00:00S 70°30' W 008°06'2 4.8 110 / 19984.6 -4.8-5.9-1.8
2014-Dec-28 23:33S 70°32' W 008°04'2 3.7
2014-Dec-28 23:00S 70°30' W 008°06'2 4.4 110 / 21984.5 -4.8-6.3-1.8
2014-Dec-28 22:33S 70°32' W 008°05'2 3.3
2014-Dec-28 22:00S 70°30' W 008°06'2 4.7 130 / 12984.8 -4.2-6.2-1.8
2014-Dec-28 21:33S 70°32' W 008°04'2 3.6
2014-Dec-28 21:00S 70°30' W 008°06'2 4.7 150 / 6984.8 -4.1-6.2-1.8
2014-Dec-28 20:33S 70°32' W 008°04'2 3.6
2014-Dec-28 20:00S 70°30' W 008°06'2 4.7 120 / 8984.7 -3.6-5.9-1.8
2014-Dec-28 19:33S 70°32' W 008°04'2 3.6
2014-Dec-28 19:00S 70°30' W 008°06'2 4.7 130 / 6984.6 -3.4-5.4-1.8
2014-Dec-28 18:33S 70°32' W 008°04'2 3.6
2014-Dec-28 18:00S 70°30' W 008°06'2 4.7 110 / 10984.310.8 -3.3-5.8-1.8
2014-Dec-28 17:33S 70°32' W 008°04'0 0.0
2014-Dec-28 16:33S 70°32' W 008°04'2 3.6
2014-Dec-28 16:00S 70°30' W 008°06'2 4.3 120 / 6984.3 -3.4-6.3-1.6
2014-Dec-28 15:34S 70°32' W 008°05'2 3.3
2014-Dec-28 15:00S 70°30' W 008°06'2 4.3 160 / 6984.310.8 -4.0-7.1-1.7
2014-Dec-28 14:33S 70°32' W 008°05'2 3.3
2014-Dec-28 14:00S 70°30' W 008°06'2 4.2 180 / 12984.4 -5.2-8.8-1.8
2014-Dec-28 13:34S 70°32' W 008°04'2 3.2
2014-Dec-28 13:00S 70°30' W 008°06'2 4.5 200 / 12984.4 -5.0-7.3-1.8
2014-Dec-28 12:33S 70°32' W 008°05'2 3.4
2014-Dec-28 12:00S 70°30' W 008°06'2 4.7 190 / 10984.310.8 -5.4-7.4-1.9
2014-Dec-28 11:33S 70°32' W 008°03'2 3.6
2014-Dec-28 11:00S 70°30' W 008°06'2 4.8 190 / 10984.2 -6.4-8.9-1.8
2014-Dec-28 10:33S 70°32' W 008°04'2 3.7
2014-Dec-28 10:00S 70°30' W 008°06'2 4.3 190 / 10984.5 -6.9-9.9-1.9
2014-Dec-28 09:33S 70°32' W 008°05'2 3.3
2014-Dec-28 09:00S 70°30' W 008°06'2 4.4 190 / 10984.510.8 -7.9-9.1-1.9
2014-Dec-28 08:34S 70°32' W 008°05'2 3.4
2014-Dec-28 08:00S 70°30' W 008°06'2 4.4 180 / 14984.3 -8.3-9.0-1.9
2014-Dec-28 07:33S 70°32' W 008°05'2 3.4
2014-Dec-28 07:00S 70°30' W 008°06'2 4.3 170 / 6984.6 -9.0-9.9-1.9
2014-Dec-28 06:34S 70°32' W 008°03'2 3.3
2014-Dec-28 06:00S 70°30' W 008°06'2 4.2 190 / 10984.810.8 -9.7-10.5-1.9
2014-Dec-28 05:34S 70°32' W 008°04'2 3.2
2014-Dec-28 05:00S 70°30' W 008°06'2 4.8 190 / 8984.9 -9.1-9.8-1.9
2014-Dec-28 04:33S 70°32' W 008°04'2 3.7
2014-Dec-28 04:00S 70°30' W 008°06'2 4.2 180 / 10985.2 -8.0-9.0-1.9
2014-Dec-28 03:34S 70°32' W 008°04'2 3.2
2014-Dec-28 03:00S 70°30' W 008°06'2 4.8 180 / 8985.4 -7.6-8.4-1.9
2014-Dec-28 02:34S 70°32' W 008°04'2 3.7
2014-Dec-28 02:00S 70°30' W 008°06'2 4.4 180 / 8985.6 -7.9-8.7-1.9
2014-Dec-28 01:34S 70°32' W 008°04'2 3.3
2014-Dec-28 01:00S 70°30' W 008°06'2 4.9 190 / 8985.9 -8.6-9.7-1.9
2014-Dec-28 00:34S 70°32' W 008°03'2 3.8
2014-Dec-28 00:00S 70°30' W 008°06'2 4.3 200 / 8985.9 -6.5-7.5-1.9
2014-Dec-27 23:34S 70°32' W 008°03'0 0.2
2014-Dec-27 22:34S 70°32' W 008°03'0 0.2
2014-Dec-27 21:33S 70°32' W 008°03'2 3.6
2014-Dec-27 21:00S 70°30' W 008°00'2 4.2 220 / 8986.1 -5.4-7.9-1.8
2014-Dec-27 20:34S 70°32' W 007°57'2 3.2
2014-Dec-27 20:00S 70°30' W 008°00'1 3.4 220 / 6986.2 -5.4-8.0-1.9
2014-Dec-27 19:34S 70°31' W 008°01'2 4.0
2014-Dec-27 19:00S 70°30' W 008°06'2 4.4 210 / 8986.1 -5.4-7.7-1.9
2014-Dec-27 18:34S 70°32' W 008°02'2 3.1
2014-Dec-27 18:00S 70°30' W 008°00'2 4.7 230 / 6986.427.0 -4.7-7.4-1.9
2014-Dec-27 17:34S 70°32' W 008°03'0 0.1
2014-Dec-27 16:34S 70°32' W 008°03'2 3.7
2014-Dec-27 16:00S 70°30' W 008°06'2 4.8 230 / 6986.5 -5.0-7.6-1.9
2014-Dec-27 15:34S 70°32' W 008°03'2 3.6
2014-Dec-27 15:00S 70°30' W 008°00'2 4.0 240 / 8986.727.0 -5.3-8.2-1.9
2014-Dec-27 14:33S 70°32' W 008°03'3 5.8
2014-Dec-27 14:00S 70°30' W 007°54'2 3.7 230 / 8986.6 -5.5-8.4-1.6
2014-Dec-27 13:34S 70°31' W 007°57'2 2.8
2014-Dec-27 13:00S 70°30' W 007°54'1 3.0 220 / 8986.7 -6.1-9.2-1.7
2014-Dec-27 12:33S 70°31' W 007°57'1 2.3
2014-Dec-27 12:00S 70°30' W 007°54'1 3.4 34.0 -1.6
2014-Dec-27 11:33S 70°31' W 007°54'1 2.7
2014-Dec-27 11:00S 70°30' W 007°54'2 4.5 230 / 10986.7 -7.3-9.6-1.6
2014-Dec-27 10:34S 70°32' W 007°57'2 3.2
2014-Dec-27 10:00S 70°30' W 008°00'2 4.2 230 / 12987.0 -8.6-10.2-1.9
2014-Dec-27 09:33S 70°32' W 007°57'2 3.2
2014-Dec-27 09:00S 70°30' W 008°00'2 4.5 230 / 8987.027.0 -9.5-11.1-1.9
2014-Dec-27 08:34S 70°32' W 008°02'2 3.5
2014-Dec-27 08:00S 70°30' W 008°00'1 3.4 240 / 10987.0 -12.7-1.9
2014-Dec-27 07:33S 70°31' W 008°00'1 2.6
2014-Dec-27 07:00S 70°30' W 008°00'2 4.3 240 / 8987.1 -8.6-10.0-1.9
2014-Dec-27 06:33S 70°32' W 008°03'2 3.3
2014-Dec-27 06:00S 70°30' W 008°00'2 4.4 240 / 12987.310.8 -7.7-8.4-1.9
2014-Dec-27 05:34S 70°32' W 008°03'2 3.4
2014-Dec-27 05:00S 70°30' W 008°00'2 4.3 220 / 12987.5 -6.7-7.6-1.9
2014-Dec-27 04:33S 70°32' W 008°02'2 3.3
2014-Dec-27 04:00S 70°30' W 008°00'2 3.8 220 / 14987.4 -6.1-7.6-1.9
2014-Dec-27 03:34S 70°32' W 008°01'2 1.0
2014-Dec-27 02:00S 70°30' W 008°00'0 0.0 230 / 10987.5 -4.7-7.0-1.9
2014-Dec-27 01:00S 70°30' W 008°00'0 0.0 240 / 8987.5 -4.4-7.2-1.9
2014-Dec-27 00:00S 70°30' W 008°00'0 0.0 220 / 8987.8 -4.3-7.4-1.9
2014-Dec-26 23:00S 70°30' W 008°00'0 0.0 240 / 10987.9 -4.2-7.0-1.9
2014-Dec-26 22:00S 70°30' W 008°00'0 0.0 230 / 10987.7 -4.2-6.3-1.9
2014-Dec-26 21:00S 70°30' W 008°00'0 0.0 230 / 16987.8 -4.6-6.3-1.9
2014-Dec-26 20:00S 70°30' W 008°00'0 0.0 220 / 8987.7 -4.4-6.3-1.9
2014-Dec-26 19:00S 70°30' W 008°00'0 0.0 270 / 12987.6 -4.9-7.0-1.9
2014-Dec-26 18:00S 70°30' W 008°00'0 0.0 250 / 12987.6 5.4 -3.8-5.4-1.9
2014-Dec-26 17:00S 70°30' W 008°00'0 0.0 240 / 14987.7 -3.8-5.1-1.9
2014-Dec-26 16:00S 70°30' W 008°00'0 0.0 230 / 14987.6 -4.0-4.7-1.9
2014-Dec-26 15:00S 70°30' W 008°00'0 0.0 240 / 16987.4 1.1 -4.4-5.4-1.9
2014-Dec-26 14:00S 70°30' W 008°00'0 0.0 250 / 19986.9 -4.3-5.5-1.9
2014-Dec-26 13:00S 70°30' W 008°00'0 0.0 260 / 16987.5 -4.5-5.7-1.9
2014-Dec-26 12:00S 70°30' W 008°00'0 0.0 260 / 12987.6 1.1 -4.1-4.8-1.9
2014-Dec-26 11:00S 70°30' W 008°00'0 0.0 250 / 12987.8 -3.8-4.8-1.9
2014-Dec-26 10:00S 70°30' W 008°00'0 0.0 260 / 10988.1 -3.3-4.9-1.9
2014-Dec-26 09:00S 70°30' W 008°00'0 0.0 280 / 10988.1 2.2 -3.4-4.2-1.9
2014-Dec-26 08:00S 70°30' W 008°00'0 0.0 270 / 12988.2 -3.5-4.5-1.9
2014-Dec-26 07:00S 70°30' W 008°00'0 0.0 260 / 14988.3 -3.4-4.8-1.8
2014-Dec-26 06:00S 70°30' W 008°00'0 0.0 260 / 12988.2 5.4 -3.6-4.3-1.8
2014-Dec-26 05:00S 70°30' W 008°00'0 0.0 260 / 10988.3 -3.9-5.4-1.8
2014-Dec-26 04:00S 70°30' W 008°00'0 0.0 250 / 10988.4 -3.9-5.2-1.7
2014-Dec-26 03:00S 70°30' W 008°00'0 0.0 250 / 12988.5 -4.0-5.2-1.8
2014-Dec-26 02:00S 70°30' W 008°00'0 0.0 290 / 12988.5 -3.5-4.7-1.9
2014-Dec-26 01:00S 70°30' W 008°00'0 0.0 280 / 14988.7 -3.1-4.3-1.9
2014-Dec-26 00:00S 70°30' W 008°00'6 6.0 270 / 10988.9 -3.0-4.7-1.8
2014-Dec-25 23:00S 70°30' W 008°18'6 6.0 280 / 10989.1 -3.0-4.8-1.5
2014-Dec-25 22:00S 70°30' W 008°00'7 7.2 270 / 14988.7 -3.5-5.3-1.6
2014-Dec-25 21:00S 70°24' W 007°48'1414.5 250 / 14989.1 -2.9-6.2-1.1
2014-Dec-25 20:00S 70°12' W 007°24'7 7.3 270 / 12989.4 -2.8-5.5-1.8
2014-Dec-25 19:00S 70°06' W 007°12'6 6.3 270 / 10989.3 -2.6-5.1-1.6
2014-Dec-25 18:00S 70°00' W 007°06'4 4.1 250 / 12989.310.8 -2.5-4.9-1.8
2014-Dec-25 17:00S 70°00' W 006°54'6 6.3 250 / 16989.0 -2.1-5.2-1.9
2014-Dec-25 16:00S 69°54' W 006°48'6 6.3 260 / 12989.1 -1.9-4.3-1.9
2014-Dec-25 15:00S 69°48' W 006°54'7 7.3 260 / 14988.810.8 -1.9-5.5-1.9
2014-Dec-25 14:00S 69°42' W 006°42'4 4.2 260 / 16988.5 -1.8-4.1-1.9
2014-Dec-25 13:00S 69°42' W 006°30'7 7.3 280 / 14988.1 -1.4-3.2-1.8
2014-Dec-25 12:00S 69°36' W 006°18'9 8.7 280 / 16988.110.8 -2.2-3.8-1.7
2014-Dec-25 11:00S 69°30' W 006°00'4 4.2 300 / 12988.3 -2.1-3.5-1.8
2014-Dec-25 10:00S 69°30' W 005°48'1010.3 290 / 14988.4 -2.4-3.4-1.7
2014-Dec-25 09:00S 69°24' W 005°24'4 4.2 300 / 12988.410.8 -2.5-3.8-1.8
2014-Dec-25 08:00S 69°24' W 005°12'9 8.7 310 / 10988.5 -2.6-3.9-1.9
2014-Dec-25 07:00S 69°18' W 004°54'8 8.5 290 / 12988.4 -3.0-4.3-1.7
2014-Dec-25 06:00S 69°18' W 004°30'14 6.8 310 / 12988.210.8 -3.2-3.9-1.6
2014-Dec-25 04:00S 69°30' W 004°48'4 4.2 290 / 10987.7 -2.9-4.3-1.4
2014-Dec-25 03:00S 69°30' W 004°36'1312.7 300 / 12987.5 -2.8-3.9-1.6
2014-Dec-25 02:00S 69°42' W 004°24'7 7.3 300 / 10987.3 -2.9-4.0-1.5
2014-Dec-25 01:00S 69°48' W 004°36'7 7.3 290 / 12986.9 -2.6-4.0-1.3
2014-Dec-25 00:00S 69°54' W 004°48'6 6.3 320 / 8986.6 -2.4-3.4-1.6
2014-Dec-24 23:00S 70°00' W 004°54'6 6.0 340 / 6986.6 -2.8-4.1-1.4
2014-Dec-24 22:00S 70°06' W 004°54'2 2.0 290 / 8986.5 -2.7-6.1-1.5
2014-Dec-24 21:00S 70°06' W 005°00'12 5.9 310 / 8986.4 -2.6-5.0-1.7
2014-Dec-24 19:00S 70°00' W 004°30'8 8.2 270 / 10986.1 -2.8-5.8-1.2
2014-Dec-24 18:00S 70°00' W 004°06'0 0.0 290 / 10985.910.8 -2.9-5.5-1.2
2014-Dec-24 17:00S 70°00' W 004°06'0 0.0 290 / 8985.7 -2.9-5.9-1.3
2014-Dec-24 16:00S 70°00' W 004°06'0 0.0 280 / 10985.5 -3.1-6.0-1.5
2014-Dec-24 15:00S 70°00' W 004°06'0 0.0 280 / 10985.510.8 -3.0-6.2-1.4
2014-Dec-24 14:00S 70°00' W 004°06'6 6.0 280 / 8985.4 -2.9-5.9-1.4
2014-Dec-24 13:00S 69°54' W 004°06'7 7.3 280 / 10985.2 -3.2-6.7-1.2
2014-Dec-24 12:00S 69°48' W 003°54'7 7.3 250 / 8985.110.8 -3.3-7.2-1.1
2014-Dec-24 11:00S 69°42' W 003°42'7 7.3 240 / 8985.1 -3.4-7.1-1.1
2014-Dec-24 10:00S 69°36' W 003°30'7 7.3 230 / 6984.8 -3.4-7.1-1.5
2014-Dec-24 09:00S 69°30' W 003°18'4 4.2 280 / 8984.810.8 -3.5-6.3-1.9
2014-Dec-24 08:00S 69°30' W 003°06'9 8.7 280 / 4984.6 -3.4-5.9-1.8
2014-Dec-24 07:00S 69°24' W 002°48'7 7.3 270 / 6984.3 -3.7-7.1-1.7
2014-Dec-24 06:00S 69°18' W 002°36'4 4.2 260 / 8984.510.8 -3.7-6.4-1.6
2014-Dec-24 05:00S 69°18' W 002°24'9 8.8 290 / 10984.3 -4.0-6.6-1.8
2014-Dec-24 04:00S 69°12' W 002°06'7 7.4 260 / 8984.3 -4.0-8.2-1.8
2014-Dec-24 03:00S 69°06' W 001°54'6 6.4 250 / 10984.3 -3.8-7.3-1.9
2014-Dec-24 02:00S 69°06' W 001°36'6 6.4 250 / 8984.2 -3.2-6.6-1.9
2014-Dec-24 01:00S 69°06' W 001°18'7 7.4 240 / 6984.3 -3.2-6.3-1.9
2014-Dec-24 00:00S 69°00' W 001°06'6 6.4 250 / 6984.6 -3.2-6.6-1.8
2014-Dec-23 23:00S 69°06' W 001°00'0 0.0 230 / 6985.0 -3.2-6.4-1.8
2014-Dec-23 22:00S 69°06' W 001°00'6 6.4 260 / 6985.2 -3.3-6.7-1.8
2014-Dec-23 21:00S 69°00' W 000°54'0 0.0 240 / 10985.3 -3.3-7.3-1.8
2014-Dec-23 20:00S 69°00' W 000°54'0 0.0 250 / 6985.3 -3.3-6.9-1.8
2014-Dec-23 19:00S 69°00' W 000°54'0 0.0 270 / 8985.7 -2.6-6.7-1.8
2014-Dec-23 18:00S 69°00' W 000°54'2 2.2 260 / 8985.8 -3.4-7.1-1.8
2014-Dec-23 17:00S 69°00' W 000°48'2 2.2 250 / 8986.0 -3.2-7.3-1.8
2014-Dec-23 16:00S 69°00' W 000°54'4 4.3 250 / 8986.2 -1.7-7.1-1.8
2014-Dec-23 15:00S 69°00' W 000°42'4 4.3 250 / 12986.410.8 -3.4-7.3-1.8
2014-Dec-23 14:00S 69°00' W 000°30'6 6.5 250 / 12986.4 -3.6-7.5-1.8
2014-Dec-23 13:00S 69°00' W 000°12'2 2.2 250 / 12986.4 -3.2-6.7-1.9
2014-Dec-23 12:00S 69°00' W 000°06'0 0.0 250 / 12986.710.8 -3.3-7.4-1.8
2014-Dec-23 10:00S 69°00' W 000°06'0 0.0 250 / 10986.7 -3.3-6.3-1.8
2014-Dec-23 09:00S 69°00' W 000°06'0 0.0 240 / 8986.727.0 -3.3-6.0-1.8
2014-Dec-23 08:00S 69°00' W 000°06'0 0.0 260 / 10986.6 -3.6-6.4-1.8
2014-Dec-23 07:00S 69°00' W 000°06'0 0.0 240 / 8986.3 -3.9-7.1-1.8
2014-Dec-23 06:00S 69°00' W 000°06'2 2.2 250 / 8986.127.0 -4.1-6.9-1.8
2014-Dec-23 05:00S 69°00' E 000°00'0 0.0 260 / 10985.9 -4.4-7.5-1.8
2014-Dec-23 04:00S 69°00' E 000°00'0 0.0 250 / 8985.9 -4.7-7.9-1.8
2014-Dec-23 03:00S 69°00' E 000°00'0 0.0 250 / 10986.0 -5.0-8.7-1.8
2014-Dec-23 02:00S 69°00' E 000°00'0 0.0 260 / 12986.0 -5.2-8.3-1.8
2014-Dec-23 01:00S 69°00' E 000°00'0 0.0 250 / 8986.1 -4.6-7.6-1.8
2014-Dec-23 00:00S 69°00' E 000°00'0 0.0 230 / 8986.0 -4.2-7.9-1.8
2014-Dec-22 23:00S 69°00' E 000°00'0 0.0 240 / 8985.7 -3.7-8.2-1.8
2014-Dec-22 22:00S 69°00' E 000°00'0 0.0 220 / 6985.8 -3.4-8.6-1.8
2014-Dec-22 21:00S 69°00' E 000°00'0 0.0 220 / 4985.7 -3.2-7.8-1.8
2014-Dec-22 20:00S 69°00' E 000°00'2 2.2 190 / 4985.5 -3.0-6.9-1.8
2014-Dec-22 19:00S 69°00' W 000°06'0 0.0 180 / 4985.3 -3.1-6.6-1.8
2014-Dec-22 18:00S 69°00' W 000°06'2 2.2 170 / 2985.110.8 -3.0-6.7-1.8
2014-Dec-22 17:00S 69°00' E 000°00'0 0.0 140 / 4985.1 -2.8-6.5-1.8
2014-Dec-22 16:00S 69°00' E 000°00'0 0.0 130 / 4984.8 -3.1-7.1-1.8
2014-Dec-22 15:00S 69°00' E 000°00'0 0.0 120 / 6984.8 5.4 -3.2-7.0-1.8
2014-Dec-22 14:00S 69°00' E 000°00'2 2.2 120 / 6984.6 -3.5-6.4-1.8
2014-Dec-22 13:00S 69°00' E 000°06'0 0.0 130 / 8984.5 -3.6-6.3-1.8
2014-Dec-22 12:00S 69°00' E 000°06'0 0.0 120 / 8984.2 5.4 -3.7-6.2-1.8
2014-Dec-22 11:00S 69°00' E 000°06'0 0.0 120 / 8984.2 -4.1-6.5-1.8
2014-Dec-22 10:00S 69°00' E 000°06'2 2.2 140 / 8984.0 -4.3-6.9-1.8
2014-Dec-22 09:00S 69°00' E 000°00'0 0.0 120 / 8983.610.8 -4.6-7.1-1.8
2014-Dec-22 08:00S 69°00' E 000°00'4 4.3 120 / 6983.2 -4.8-6.8-1.8
2014-Dec-22 07:00S 69°00' W 000°12'0 0.0 090 / 6983.0 -5.3-7.2-1.8
2014-Dec-22 06:00S 69°00' W 000°12'0 0.0 100 / 8982.7 5.4 -5.7-7.6-1.8
2014-Dec-22 05:00S 69°00' W 000°12'0 0.0 100 / 6982.1 -5.7-7.2-1.8
2014-Dec-22 04:00S 69°00' W 000°12'0 0.0 130 / 6982.1 -5.8-7.6-1.8
2014-Dec-22 03:00S 69°00' W 000°12'2 2.2 130 / 6981.9 -5.8-7.5-1.8
2014-Dec-22 02:00S 69°00' W 000°06'0 0.0 120 / 4981.9 -5.7-7.4-1.8
2014-Dec-22 01:00S 69°00' W 000°06'0 0.0 140 / 4982.0 -5.7-7.4-1.8
2014-Dec-22 00:00S 69°00' W 000°06'0 0.0 140 / 6982.1 -5.7-7.1-1.8
2014-Dec-21 23:00S 69°00' W 000°06'0 0.0 130 / 10981.9 -5.5-7.3-1.8
2014-Dec-21 22:00S 69°00' W 000°06'0 0.0 120 / 10981.7 -4.9-6.9-1.8
2014-Dec-21 21:00S 69°00' W 000°06'0 0.0 110 / 10981.9 -4.5-6.9-1.8
2014-Dec-21 20:00S 69°00' W 000°06'0 0.0 090 / 12982.2 -4.5-7.2-1.8
2014-Dec-21 19:00S 69°00' W 000°06'2 2.2 080 / 16982.2 -4.7-7.2-1.8
2014-Dec-21 18:00S 69°00' E 000°00'1212.2 080 / 16981.910.8 -4.4-6.4-1.8
2014-Dec-21 17:00S 68°48' E 000°06'6 6.4 080 / 16981.7 -3.8-6.2-1.8
2014-Dec-21 16:00S 68°42' E 000°12'2 2.2 080 / 16981.7 -4.1-6.3-1.8
2014-Dec-21 15:00S 68°42' E 000°06'6 6.4 080 / 17982.2 5.4 -5.1-6.3-1.8
2014-Dec-21 14:00S 68°36' E 000°00'0 0.0 100 / 16982.5 -5.3-7.3-1.8
2014-Dec-21 13:00S 68°36' E 000°00'6 6.4 080 / 14982.9 -4.8-6.9-1.8
2014-Dec-21 12:00S 68°30' W 000°06'6 6.4 090 / 14983.4 5.4 -4.6-6.9-1.8
2014-Dec-21 11:00S 68°24' E 000°00'0 0.0 080 / 14984.0 -4.7-7.7-1.8
2014-Dec-21 10:00S 68°24' E 000°00'0 0.0 070 / 14984.1 -5.0-7.4-1.8
2014-Dec-21 09:00S 68°24' E 000°00'12 6.0 060 / 16984.610.8 -5.1-7.9-1.8
2014-Dec-21 07:00S 68°12' E 000°00'6 6.0 060 / 14985.5 -4.7-7.2-1.8
2014-Dec-21 06:00S 68°06' E 000°00'6 6.0 060 / 12985.810.8 -4.6-7.3-1.8
2014-Dec-21 05:00S 68°00' E 000°00'0 0.0 070 / 12986.4 -4.8-7.2-1.8
2014-Dec-21 04:00S 68°00' E 000°00'0 0.0 070 / 12987.2 -4.9-7.5-1.8
2014-Dec-21 03:00S 68°00' E 000°00'0 0.0 040 / 10988.0 -5.0-7.3-1.8
2014-Dec-21 02:00S 68°00' E 000°00'0 0.0 060 / 12988.7 -5.3-6.8-1.8
2014-Dec-21 01:00S 68°00' E 000°00'6 6.4 060 / 10989.3 -5.3-6.8-1.8
2014-Dec-21 00:00S 67°54' E 000°06'6 6.4 030 / 10990.1 -5.0-6.4-1.8
2014-Dec-20 23:00S 67°48' E 000°00'0 0.0 050 / 10990.3 -5.6-6.3-1.8
2014-Dec-20 22:00S 67°48' E 000°00'6 6.4 070 / 8990.8 -5.7-6.5-1.8
2014-Dec-20 21:00S 67°42' E 000°06'6 6.0 040 / 8991.5 -5.4-6.2-1.8
2014-Dec-20 20:00S 67°36' E 000°06'0 0.0 040 / 6992.0 -5.7-6.3-1.8
2014-Dec-20 19:00S 67°36' E 000°06'0 0.0 020 / 4992.1 -5.1-5.9-1.8
2014-Dec-20 18:00S 67°36' E 000°06'0 0.0 010 / 4992.3 5.4 -5.2-5.8-1.8
2014-Dec-20 17:00S 67°36' E 000°06'0 0.0 340 / 2992.6 -4.7-5.2-1.8
2014-Dec-20 16:00S 67°36' E 000°06'0 0.0 320 / 2993.0 -4.5-4.9-1.8
2014-Dec-20 15:00S 67°36' E 000°06'0 0.0 300 / 4993.1 5.4 -4.6-4.9-1.8
2014-Dec-20 14:00S 67°36' E 000°06'0 0.0 260 / 4993.1 -4.4-4.5-1.8
2014-Dec-20 13:00S 67°36' E 000°06'0 0.0 240 / 2993.1 -4.7-4.9-1.8
2014-Dec-20 12:00S 67°36' E 000°06'0 0.0 280 / 4992.9 1.1 -5.0-5.3-1.8
2014-Dec-20 11:00S 67°36' E 000°06'0 0.0 280 / 8992.9 -4.7-5.1-1.7
2014-Dec-20 10:00S 67°36' E 000°06'6 3.2 280 / 6992.7 -4.4-4.6-1.7
2014-Dec-20 08:00S 67°30' E 000°00'6 6.0 290 / 10992.6 -6.2-6.6-1.8
2014-Dec-20 07:00S 67°24' E 000°00'12 6.0 280 / 10992.4 -6.2-6.9-1.7
2014-Dec-20 05:00S 67°12' E 000°00'6 6.0 280 / 6992.3 -5.6-6.1-1.8
2014-Dec-20 04:00S 67°06' E 000°00'6 6.0 260 / 6992.2 -5.2-5.5-1.8
2014-Dec-20 03:00S 67°00' E 000°00'0 0.0 250 / 6992.1 -4.9-5.5-1.8
2014-Dec-20 02:00S 67°00' E 000°00'0 0.0 230 / 4992.0 -3.7-6.3-1.8
2014-Dec-20 01:00S 67°00' E 000°00'0 0.0 210 / 6991.8 -3.9-6.6-1.8
2014-Dec-20 00:00S 67°00' E 000°00'0 0.0 200 / 12991.7 -3.6-6.7-1.7
2014-Dec-19 23:00S 67°00' E 000°00'6 6.4 210 / 12991.4 -3.0-5.9-1.8
2014-Dec-19 22:00S 66°54' W 000°06'6 6.0 250 / 12991.2 -2.8-4.3-1.8
2014-Dec-19 21:00S 66°48' W 000°06'6 6.5 240 / 12991.1 -2.7-4.4-1.8
2014-Dec-19 20:00S 66°42' W 000°12'6 6.5 240 / 12991.0 -2.3-4.7-1.7
2014-Dec-19 19:00S 66°36' W 000°06'6 6.5 230 / 12990.7 -2.0-4.4-1.6
2014-Dec-19 18:00S 66°30' E 000°00'0 0.0 230 / 12990.627.0 -1.7-4.3-1.6
2014-Dec-19 17:00S 66°30' E 000°00'0 0.0 230 / 12990.3 -1.7-4.7-1.6
2014-Dec-19 16:00S 66°30' E 000°00'0 0.0 230 / 17990.1 -1.6-5.2-1.6
2014-Dec-19 15:00S 66°30' E 000°00'0 0.0 230 / 17990.027.0 -1.7-5.4-1.6
2014-Dec-19 14:00S 66°30' E 000°00'0 0.0 240 / 17989.9 -1.6-5.6-1.4
2014-Dec-19 13:00S 66°30' E 000°00'0 0.0 250 / 14989.8 -2.0-5.2-1.6
2014-Dec-19 12:00S 66°30' E 000°00'0 0.0 260 / 12989.627.0 -2.6-4.6-1.6
2014-Dec-19 11:00S 66°30' E 000°00'0 0.0 260 / 12989.6 -3.1-4.6-1.5
2014-Dec-19 10:00S 66°30' E 000°00'0 0.0 260 / 10989.4 -2.8-3.8-1.6
2014-Dec-19 09:00S 66°30' E 000°00'0 0.0 250 / 10989.410.8 -3.2-4.3-1.6
2014-Dec-19 08:00S 66°30' E 000°00'0 0.0 260 / 8989.4 -3.7-4.9-1.6
2014-Dec-19 07:00S 66°30' E 000°00'5 4.8 250 / 8989.1 -4.3-4.9-1.6
2014-Dec-19 06:00S 66°30' W 000°12'2 2.4 230 / 8989.110.8 -4.7-5.2-1.7
2014-Dec-19 05:00S 66°30' W 000°06'6 6.5 220 / 8988.8 -5.1-5.6-1.7
2014-Dec-19 04:00S 66°24' E 000°00'   190 / 8988.5 -4.9-5.2-1.7
Track history (hours):
 
Tides and Currents Weather Stations Pressure Air Temp Water Temp Dewpoint Dewpoint Depression Visibility Wind Speed Wind Dir Waves Ship Positions

Oceanographic research ship Polarstern (Germany)

Detailed information on ship capabilities available from University of Delaware's Ocean Information Center and ARCUS's ALIAS (Arctic Logistics Information and Support) project.

Last reported at 2014-Dec-29 03:34 UTC. Time now 2014-Dec-29 04:33 UTC.
Position S 70°32' W 008°04'.

Length 117.9 m; beam 25 m; draft 10.7 m.

MMSI: 211202460.

Date/timePositionNaut miles runAvg speedWind from/ knotsBaromVisibWave heightAir tempDewpointWater temp
2014-Dec-29 03:34S 70°32' W 008°04'2 3.7
2014-Dec-29 03:00S 70°30' W 008°06'2 4.8 110 / 12985.4 -8.5-9.1-1.8
2014-Dec-29 02:33S 70°32' W 008°04'2 3.7
2014-Dec-29 02:00S 70°30' W 008°06'2 4.8 120 / 16985.3 -7.6-8.5-1.8
2014-Dec-29 01:33S 70°32' W 008°04'2 3.7
2014-Dec-29 01:00S 70°30' W 008°06'2 4.8 110 / 16985.0 -6.1-7.5-1.8
2014-Dec-29 00:33S 70°32' W 008°04'2 3.7
2014-Dec-29 00:00S 70°30' W 008°06'2 4.8 110 / 19984.6 -4.8-5.9-1.8
2014-Dec-28 23:33S 70°32' W 008°04'2 3.7
2014-Dec-28 23:00S 70°30' W 008°06'2 4.4 110 / 21984.5 -4.8-6.3-1.8
2014-Dec-28 22:33S 70°32' W 008°05'2 3.3
2014-Dec-28 22:00S 70°30' W 008°06'2 4.7 130 / 12984.8 -4.2-6.2-1.8
2014-Dec-28 21:33S 70°32' W 008°04'2 3.6
2014-Dec-28 21:00S 70°30' W 008°06'2 4.7 150 / 6984.8 -4.1-6.2-1.8
2014-Dec-28 20:33S 70°32' W 008°04'2 3.6
2014-Dec-28 20:00S 70°30' W 008°06'2 4.7 120 / 8984.7 -3.6-5.9-1.8
2014-Dec-28 19:33S 70°32' W 008°04'2 3.6
2014-Dec-28 19:00S 70°30' W 008°06'2 4.7 130 / 6984.6 -3.4-5.4-1.8
2014-Dec-28 18:33S 70°32' W 008°04'2 3.6
2014-Dec-28 18:00S 70°30' W 008°06'2 4.7 110 / 10984.310.8 -3.3-5.8-1.8
2014-Dec-28 17:33S 70°32' W 008°04'0 0.0
2014-Dec-28 16:33S 70°32' W 008°04'2 3.6
2014-Dec-28 16:00S 70°30' W 008°06'2 4.3 120 / 6984.3 -3.4-6.3-1.6
2014-Dec-28 15:34S 70°32' W 008°05'2 3.3
2014-Dec-28 15:00S 70°30' W 008°06'2 4.3 160 / 6984.310.8 -4.0-7.1-1.7
2014-Dec-28 14:33S 70°32' W 008°05'2 3.3
2014-Dec-28 14:00S 70°30' W 008°06'2 4.2 180 / 12984.4 -5.2-8.8-1.8
2014-Dec-28 13:34S 70°32' W 008°04'2 3.2
2014-Dec-28 13:00S 70°30' W 008°06'2 4.5 200 / 12984.4 -5.0-7.3-1.8
2014-Dec-28 12:33S 70°32' W 008°05'2 3.4
2014-Dec-28 12:00S 70°30' W 008°06'2 4.7 190 / 10984.310.8 -5.4-7.4-1.9
2014-Dec-28 11:33S 70°32' W 008°03'2 3.6
2014-Dec-28 11:00S 70°30' W 008°06'2 4.8 190 / 10984.2 -6.4-8.9-1.8
2014-Dec-28 10:33S 70°32' W 008°04'2 3.7
2014-Dec-28 10:00S 70°30' W 008°06'2 4.3 190 / 10984.5 -6.9-9.9-1.9
2014-Dec-28 09:33S 70°32' W 008°05'2 3.3
2014-Dec-28 09:00S 70°30' W 008°06'2 4.4 190 / 10984.510.8 -7.9-9.1-1.9
2014-Dec-28 08:34S 70°32' W 008°05'2 3.4
2014-Dec-28 08:00S 70°30' W 008°06'2 4.4 180 / 14984.3 -8.3-9.0-1.9
2014-Dec-28 07:33S 70°32' W 008°05'2 3.4
2014-Dec-28 07:00S 70°30' W 008°06'2 4.3 170 / 6984.6 -9.0-9.9-1.9
2014-Dec-28 06:34S 70°32' W 008°03'2 3.3
2014-Dec-28 06:00S 70°30' W 008°06'2 4.2 190 / 10984.810.8 -9.7-10.5-1.9
2014-Dec-28 05:34S 70°32' W 008°04'2 3.2
2014-Dec-28 05:00S 70°30' W 008°06'2 4.8 190 / 8984.9 -9.1-9.8-1.9
2014-Dec-28 04:33S 70°32' W 008°04'2 3.7
2014-Dec-28 04:00S 70°30' W 008°06'2 4.2 180 / 10985.2 -8.0-9.0-1.9
2014-Dec-28 03:34S 70°32' W 008°04'2 3.2
2014-Dec-28 03:00S 70°30' W 008°06'2 4.8 180 / 8985.4 -7.6-8.4-1.9
2014-Dec-28 02:34S 70°32' W 008°04'2 3.7
2014-Dec-28 02:00S 70°30' W 008°06'2 4.4 180 / 8985.6 -7.9-8.7-1.9
2014-Dec-28 01:34S 70°32' W 008°04'2 3.3
2014-Dec-28 01:00S 70°30' W 008°06'2 4.9 190 / 8985.9 -8.6-9.7-1.9
2014-Dec-28 00:34S 70°32' W 008°03'2 3.8
2014-Dec-28 00:00S 70°30' W 008°06'2 4.3 200 / 8985.9 -6.5-7.5-1.9
2014-Dec-27 23:34S 70°32' W 008°03'0 0.2
2014-Dec-27 22:34S 70°32' W 008°03'0 0.2
2014-Dec-27 21:33S 70°32' W 008°03'2 3.6
2014-Dec-27 21:00S 70°30' W 008°00'2 4.2 220 / 8986.1 -5.4-7.9-1.8
2014-Dec-27 20:34S 70°32' W 007°57'2 3.2
2014-Dec-27 20:00S 70°30' W 008°00'1 3.4 220 / 6986.2 -5.4-8.0-1.9
2014-Dec-27 19:34S 70°31' W 008°01'2 4.0
2014-Dec-27 19:00S 70°30' W 008°06'2 4.4 210 / 8986.1 -5.4-7.7-1.9
2014-Dec-27 18:34S 70°32' W 008°02'2 3.1
2014-Dec-27 18:00S 70°30' W 008°00'2 4.7 230 / 6986.427.0 -4.7-7.4-1.9
2014-Dec-27 17:34S 70°32' W 008°03'0 0.1
2014-Dec-27 16:34S 70°32' W 008°03'2 3.7
2014-Dec-27 16:00S 70°30' W 008°06'2 4.8 230 / 6986.5 -5.0-7.6-1.9
2014-Dec-27 15:34S 70°32' W 008°03'2 3.6
2014-Dec-27 15:00S 70°30' W 008°00'2 4.0 240 / 8986.727.0 -5.3-8.2-1.9
2014-Dec-27 14:33S 70°32' W 008°03'3 5.8
2014-Dec-27 14:00S 70°30' W 007°54'2 3.7 230 / 8986.6 -5.5-8.4-1.6
2014-Dec-27 13:34S 70°31' W 007°57'2 2.8
2014-Dec-27 13:00S 70°30' W 007°54'1 3.0 220 / 8986.7 -6.1-9.2-1.7
2014-Dec-27 12:33S 70°31' W 007°57'1 2.3
2014-Dec-27 12:00S 70°30' W 007°54'1 3.4 34.0 -1.6
2014-Dec-27 11:33S 70°31' W 007°54'1 2.7
2014-Dec-27 11:00S 70°30' W 007°54'2 4.5 230 / 10986.7 -7.3-9.6-1.6
2014-Dec-27 10:34S 70°32' W 007°57'2 3.2
2014-Dec-27 10:00S 70°30' W 008°00'2 4.2 230 / 12987.0 -8.6-10.2-1.9
2014-Dec-27 09:33S 70°32' W 007°57'2 3.2
2014-Dec-27 09:00S 70°30' W 008°00'2 4.5 230 / 8987.027.0 -9.5-11.1-1.9
2014-Dec-27 08:34S 70°32' W 008°02'2 3.5
2014-Dec-27 08:00S 70°30' W 008°00'1 3.4 240 / 10987.0 -12.7-1.9
2014-Dec-27 07:33S 70°31' W 008°00'1 2.6
2014-Dec-27 07:00S 70°30' W 008°00'2 4.3 240 / 8987.1 -8.6-10.0-1.9
2014-Dec-27 06:33S 70°32' W 008°03'2 3.3
2014-Dec-27 06:00S 70°30' W 008°00'2 4.4 240 / 12987.310.8 -7.7-8.4-1.9
2014-Dec-27 05:34S 70°32' W 008°03'2 3.4
2014-Dec-27 05:00S 70°30' W 008°00'2 4.3 220 / 12987.5 -6.7-7.6-1.9
2014-Dec-27 04:33S 70°32' W 008°02'2 3.3
2014-Dec-27 04:00S 70°30' W 008°00'2 3.8 220 / 14987.4 -6.1-7.6-1.9
2014-Dec-27 03:34S 70°32' W 008°01'2 1.0
2014-Dec-27 02:00S 70°30' W 008°00'0 0.0 230 / 10987.5 -4.7-7.0-1.9
2014-Dec-27 01:00S 70°30' W 008°00'0 0.0 240 / 8987.5 -4.4-7.2-1.9
2014-Dec-27 00:00S 70°30' W 008°00'0 0.0 220 / 8987.8 -4.3-7.4-1.9
2014-Dec-26 23:00S 70°30' W 008°00'0 0.0 240 / 10987.9 -4.2-7.0-1.9
2014-Dec-26 22:00S 70°30' W 008°00'0 0.0 230 / 10987.7 -4.2-6.3-1.9
2014-Dec-26 21:00S 70°30' W 008°00'0 0.0 230 / 16987.8 -4.6-6.3-1.9
2014-Dec-26 20:00S 70°30' W 008°00'0 0.0 220 / 8987.7 -4.4-6.3-1.9
2014-Dec-26 19:00S 70°30' W 008°00'0 0.0 270 / 12987.6 -4.9-7.0-1.9
2014-Dec-26 18:00S 70°30' W 008°00'0 0.0 250 / 12987.6 5.4 -3.8-5.4-1.9
2014-Dec-26 17:00S 70°30' W 008°00'0 0.0 240 / 14987.7 -3.8-5.1-1.9
2014-Dec-26 16:00S 70°30' W 008°00'0 0.0 230 / 14987.6 -4.0-4.7-1.9
2014-Dec-26 15:00S 70°30' W 008°00'0 0.0 240 / 16987.4 1.1 -4.4-5.4-1.9
2014-Dec-26 14:00S 70°30' W 008°00'0 0.0 250 / 19986.9 -4.3-5.5-1.9
2014-Dec-26 13:00S 70°30' W 008°00'0 0.0 260 / 16987.5 -4.5-5.7-1.9
2014-Dec-26 12:00S 70°30' W 008°00'0 0.0 260 / 12987.6 1.1 -4.1-4.8-1.9
2014-Dec-26 11:00S 70°30' W 008°00'0 0.0 250 / 12987.8 -3.8-4.8-1.9
2014-Dec-26 10:00S 70°30' W 008°00'0 0.0 260 / 10988.1 -3.3-4.9-1.9
2014-Dec-26 09:00S 70°30' W 008°00'0 0.0 280 / 10988.1 2.2 -3.4-4.2-1.9
2014-Dec-26 08:00S 70°30' W 008°00'0 0.0 270 / 12988.2 -3.5-4.5-1.9
2014-Dec-26 07:00S 70°30' W 008°00'0 0.0 260 / 14988.3 -3.4-4.8-1.8
2014-Dec-26 06:00S 70°30' W 008°00'0 0.0 260 / 12988.2 5.4 -3.6-4.3-1.8
2014-Dec-26 05:00S 70°30' W 008°00'0 0.0 260 / 10988.3 -3.9-5.4-1.8
2014-Dec-26 04:00S 70°30' W 008°00'0 0.0 250 / 10988.4 -3.9-5.2-1.7
2014-Dec-26 03:00S 70°30' W 008°00'0 0.0 250 / 12988.5 -4.0-5.2-1.8
2014-Dec-26 02:00S 70°30' W 008°00'0 0.0 290 / 12988.5 -3.5-4.7-1.9
2014-Dec-26 01:00S 70°30' W 008°00'0 0.0 280 / 14988.7 -3.1-4.3-1.9
2014-Dec-26 00:00S 70°30' W 008°00'6 6.0 270 / 10988.9 -3.0-4.7-1.8
2014-Dec-25 23:00S 70°30' W 008°18'6 6.0 280 / 10989.1 -3.0-4.8-1.5
2014-Dec-25 22:00S 70°30' W 008°00'7 7.2 270 / 14988.7 -3.5-5.3-1.6
2014-Dec-25 21:00S 70°24' W 007°48'1414.5 250 / 14989.1 -2.9-6.2-1.1
2014-Dec-25 20:00S 70°12' W 007°24'7 7.3 270 / 12989.4 -2.8-5.5-1.8
2014-Dec-25 19:00S 70°06' W 007°12'6 6.3 270 / 10989.3 -2.6-5.1-1.6
2014-Dec-25 18:00S 70°00' W 007°06'4 4.1 250 / 12989.310.8 -2.5-4.9-1.8
2014-Dec-25 17:00S 70°00' W 006°54'6 6.3 250 / 16989.0 -2.1-5.2-1.9
2014-Dec-25 16:00S 69°54' W 006°48'6 6.3 260 / 12989.1 -1.9-4.3-1.9
2014-Dec-25 15:00S 69°48' W 006°54'7 7.3 260 / 14988.810.8 -1.9-5.5-1.9
2014-Dec-25 14:00S 69°42' W 006°42'4 4.2 260 / 16988.5 -1.8-4.1-1.9
2014-Dec-25 13:00S 69°42' W 006°30'7 7.3 280 / 14988.1 -1.4-3.2-1.8
2014-Dec-25 12:00S 69°36' W 006°18'9 8.7 280 / 16988.110.8 -2.2-3.8-1.7
2014-Dec-25 11:00S 69°30' W 006°00'4 4.2 300 / 12988.3 -2.1-3.5-1.8
2014-Dec-25 10:00S 69°30' W 005°48'1010.3 290 / 14988.4 -2.4-3.4-1.7
2014-Dec-25 09:00S 69°24' W 005°24'4 4.2 300 / 12988.410.8 -2.5-3.8-1.8
2014-Dec-25 08:00S 69°24' W 005°12'9 8.7 310 / 10988.5 -2.6-3.9-1.9
2014-Dec-25 07:00S 69°18' W 004°54'8 8.5 290 / 12988.4 -3.0-4.3-1.7
2014-Dec-25 06:00S 69°18' W 004°30'14 6.8 310 / 12988.210.8 -3.2-3.9-1.6
2014-Dec-25 04:00S 69°30' W 004°48'4 4.2 290 / 10987.7 -2.9-4.3-1.4
2014-Dec-25 03:00S 69°30' W 004°36'1312.7 300 / 12987.5 -2.8-3.9-1.6
2014-Dec-25 02:00S 69°42' W 004°24'7 7.3 300 / 10987.3 -2.9-4.0-1.5
2014-Dec-25 01:00S 69°48' W 004°36'7 7.3 290 / 12986.9 -2.6-4.0-1.3
2014-Dec-25 00:00S 69°54' W 004°48'6 6.3 320 / 8986.6 -2.4-3.4-1.6
2014-Dec-24 23:00S 70°00' W 004°54'6 6.0 340 / 6986.6 -2.8-4.1-1.4
2014-Dec-24 22:00S 70°06' W 004°54'2 2.0 290 / 8986.5 -2.7-6.1-1.5
2014-Dec-24 21:00S 70°06' W 005°00'12 5.9 310 / 8986.4 -2.6-5.0-1.7
2014-Dec-24 19:00S 70°00' W 004°30'8 8.2 270 / 10986.1 -2.8-5.8-1.2
2014-Dec-24 18:00S 70°00' W 004°06'0 0.0 290 / 10985.910.8 -2.9-5.5-1.2
2014-Dec-24 17:00S 70°00' W 004°06'0 0.0 290 / 8985.7 -2.9-5.9-1.3
2014-Dec-24 16:00S 70°00' W 004°06'0 0.0 280 / 10985.5 -3.1-6.0-1.5
2014-Dec-24 15:00S 70°00' W 004°06'0 0.0 280 / 10985.510.8 -3.0-6.2-1.4
2014-Dec-24 14:00S 70°00' W 004°06'6 6.0 280 / 8985.4 -2.9-5.9-1.4
2014-Dec-24 13:00S 69°54' W 004°06'7 7.3 280 / 10985.2 -3.2-6.7-1.2
2014-Dec-24 12:00S 69°48' W 003°54'7 7.3 250 / 8985.110.8 -3.3-7.2-1.1
2014-Dec-24 11:00S 69°42' W 003°42'7 7.3 240 / 8985.1 -3.4-7.1-1.1
2014-Dec-24 10:00S 69°36' W 003°30'7 7.3 230 / 6984.8 -3.4-7.1-1.5
2014-Dec-24 09:00S 69°30' W 003°18'4 4.2 280 / 8984.810.8 -3.5-6.3-1.9
2014-Dec-24 08:00S 69°30' W 003°06'9 8.7 280 / 4984.6 -3.4-5.9-1.8
2014-Dec-24 07:00S 69°24' W 002°48'7 7.3 270 / 6984.3 -3.7-7.1-1.7
2014-Dec-24 06:00S 69°18' W 002°36'4 4.2 260 / 8984.510.8 -3.7-6.4-1.6
2014-Dec-24 05:00S 69°18' W 002°24'9 8.8 290 / 10984.3 -4.0-6.6-1.8
2014-Dec-24 04:00S 69°12' W 002°06'7 7.4 260 / 8984.3 -4.0-8.2-1.8
2014-Dec-24 03:00S 69°06' W 001°54'6 6.4 250 / 10984.3 -3.8-7.3-1.9
2014-Dec-24 02:00S 69°06' W 001°36'6 6.4 250 / 8984.2 -3.2-6.6-1.9
2014-Dec-24 01:00S 69°06' W 001°18'7 7.4 240 / 6984.3 -3.2-6.3-1.9
2014-Dec-24 00:00S 69°00' W 001°06'6 6.4 250 / 6984.6 -3.2-6.6-1.8
2014-Dec-23 23:00S 69°06' W 001°00'0 0.0 230 / 6985.0 -3.2-6.4-1.8
2014-Dec-23 22:00S 69°06' W 001°00'6 6.4 260 / 6985.2 -3.3-6.7-1.8
2014-Dec-23 21:00S 69°00' W 000°54'0 0.0 240 / 10985.3 -3.3-7.3-1.8
2014-Dec-23 20:00S 69°00' W 000°54'0 0.0 250 / 6985.3 -3.3-6.9-1.8
2014-Dec-23 19:00S 69°00' W 000°54'0 0.0 270 / 8985.7 -2.6-6.7-1.8
2014-Dec-23 18:00S 69°00' W 000°54'2 2.2 260 / 8985.8 -3.4-7.1-1.8
2014-Dec-23 17:00S 69°00' W 000°48'2 2.2 250 / 8986.0 -3.2-7.3-1.8
2014-Dec-23 16:00S 69°00' W 000°54'4 4.3 250 / 8986.2 -1.7-7.1-1.8
2014-Dec-23 15:00S 69°00' W 000°42'4 4.3 250 / 12986.410.8 -3.4-7.3-1.8
2014-Dec-23 14:00S 69°00' W 000°30'6 6.5 250 / 12986.4 -3.6-7.5-1.8
2014-Dec-23 13:00S 69°00' W 000°12'2 2.2 250 / 12986.4 -3.2-6.7-1.9
2014-Dec-23 12:00S 69°00' W 000°06'0 0.0 250 / 12986.710.8 -3.3-7.4-1.8
2014-Dec-23 10:00S 69°00' W 000°06'0 0.0 250 / 10986.7 -3.3-6.3-1.8
2014-Dec-23 09:00S 69°00' W 000°06'0 0.0 240 / 8986.727.0 -3.3-6.0-1.8
2014-Dec-23 08:00S 69°00' W 000°06'0 0.0 260 / 10986.6 -3.6-6.4-1.8
2014-Dec-23 07:00S 69°00' W 000°06'0 0.0 240 / 8986.3 -3.9-7.1-1.8
2014-Dec-23 06:00S 69°00' W 000°06'2 2.2 250 / 8986.127.0 -4.1-6.9-1.8
2014-Dec-23 05:00S 69°00' E 000°00'0 0.0 260 / 10985.9 -4.4-7.5-1.8
2014-Dec-23 04:00S 69°00' E 000°00'0 0.0 250 / 8985.9 -4.7-7.9-1.8
2014-Dec-23 03:00S 69°00' E 000°00'0 0.0 250 / 10986.0 -5.0-8.7-1.8
2014-Dec-23 02:00S 69°00' E 000°00'0 0.0 260 / 12986.0 -5.2-8.3-1.8
2014-Dec-23 01:00S 69°00' E 000°00'0 0.0 250 / 8986.1 -4.6-7.6-1.8
2014-Dec-23 00:00S 69°00' E 000°00'0 0.0 230 / 8986.0 -4.2-7.9-1.8
2014-Dec-22 23:00S 69°00' E 000°00'0 0.0 240 / 8985.7 -3.7-8.2-1.8
2014-Dec-22 22:00S 69°00' E 000°00'0 0.0 220 / 6985.8 -3.4-8.6-1.8
2014-Dec-22 21:00S 69°00' E 000°00'0 0.0 220 / 4985.7 -3.2-7.8-1.8
2014-Dec-22 20:00S 69°00' E 000°00'2 2.2 190 / 4985.5 -3.0-6.9-1.8
2014-Dec-22 19:00S 69°00' W 000°06'0 0.0 180 / 4985.3 -3.1-6.6-1.8
2014-Dec-22 18:00S 69°00' W 000°06'2 2.2 170 / 2985.110.8 -3.0-6.7-1.8
2014-Dec-22 17:00S 69°00' E 000°00'0 0.0 140 / 4985.1 -2.8-6.5-1.8
2014-Dec-22 16:00S 69°00' E 000°00'0 0.0 130 / 4984.8 -3.1-7.1-1.8
2014-Dec-22 15:00S 69°00' E 000°00'0 0.0 120 / 6984.8 5.4 -3.2-7.0-1.8
2014-Dec-22 14:00S 69°00' E 000°00'2 2.2 120 / 6984.6 -3.5-6.4-1.8
2014-Dec-22 13:00S 69°00' E 000°06'0 0.0 130 / 8984.5 -3.6-6.3-1.8
2014-Dec-22 12:00S 69°00' E 000°06'0 0.0 120 / 8984.2 5.4 -3.7-6.2-1.8
2014-Dec-22 11:00S 69°00' E 000°06'0 0.0 120 / 8984.2 -4.1-6.5-1.8
2014-Dec-22 10:00S 69°00' E 000°06'2 2.2 140 / 8984.0 -4.3-6.9-1.8
2014-Dec-22 09:00S 69°00' E 000°00'0 0.0 120 / 8983.610.8 -4.6-7.1-1.8
2014-Dec-22 08:00S 69°00' E 000°00'4 4.3 120 / 6983.2 -4.8-6.8-1.8
2014-Dec-22 07:00S 69°00' W 000°12'0 0.0 090 / 6983.0 -5.3-7.2-1.8
2014-Dec-22 06:00S 69°00' W 000°12'0 0.0 100 / 8982.7 5.4 -5.7-7.6-1.8
2014-Dec-22 05:00S 69°00' W 000°12'0 0.0 100 / 6982.1 -5.7-7.2-1.8
2014-Dec-22 04:00S 69°00' W 000°12'0 0.0 130 / 6982.1 -5.8-7.6-1.8
2014-Dec-22 03:00S 69°00' W 000°12'2 2.2 130 / 6981.9 -5.8-7.5-1.8
2014-Dec-22 02:00S 69°00' W 000°06'0 0.0 120 / 4981.9 -5.7-7.4-1.8
2014-Dec-22 01:00S 69°00' W 000°06'0 0.0 140 / 4982.0 -5.7-7.4-1.8
2014-Dec-22 00:00S 69°00' W 000°06'0 0.0 140 / 6982.1 -5.7-7.1-1.8
2014-Dec-21 23:00S 69°00' W 000°06'0 0.0 130 / 10981.9 -5.5-7.3-1.8
2014-Dec-21 22:00S 69°00' W 000°06'0 0.0 120 / 10981.7 -4.9-6.9-1.8
2014-Dec-21 21:00S 69°00' W 000°06'0 0.0 110 / 10981.9 -4.5-6.9-1.8
2014-Dec-21 20:00S 69°00' W 000°06'0 0.0 090 / 12982.2 -4.5-7.2-1.8
2014-Dec-21 19:00S 69°00' W 000°06'2 2.2 080 / 16982.2 -4.7-7.2-1.8
2014-Dec-21 18:00S 69°00' E 000°00'1212.2 080 / 16981.910.8 -4.4-6.4-1.8
2014-Dec-21 17:00S 68°48' E 000°06'6 6.4 080 / 16981.7 -3.8-6.2-1.8
2014-Dec-21 16:00S 68°42' E 000°12'2 2.2 080 / 16981.7 -4.1-6.3-1.8
2014-Dec-21 15:00S 68°42' E 000°06'6 6.4 080 / 17982.2 5.4 -5.1-6.3-1.8
2014-Dec-21 14:00S 68°36' E 000°00'0 0.0 100 / 16982.5 -5.3-7.3-1.8
2014-Dec-21 13:00S 68°36' E 000°00'6 6.4 080 / 14982.9 -4.8-6.9-1.8
2014-Dec-21 12:00S 68°30' W 000°06'6 6.4 090 / 14983.4 5.4 -4.6-6.9-1.8
2014-Dec-21 11:00S 68°24' E 000°00'0 0.0 080 / 14984.0 -4.7-7.7-1.8
2014-Dec-21 10:00S 68°24' E 000°00'0 0.0 070 / 14984.1 -5.0-7.4-1.8
2014-Dec-21 09:00S 68°24' E 000°00'12 6.0 060 / 16984.610.8 -5.1-7.9-1.8
2014-Dec-21 07:00S 68°12' E 000°00'6 6.0 060 / 14985.5 -4.7-7.2-1.8
2014-Dec-21 06:00S 68°06' E 000°00'6 6.0 060 / 12985.810.8 -4.6-7.3-1.8
2014-Dec-21 05:00S 68°00' E 000°00'0 0.0 070 / 12986.4 -4.8-7.2-1.8
2014-Dec-21 04:00S 68°00' E 000°00'0 0.0 070 / 12987.2 -4.9-7.5-1.8
2014-Dec-21 03:00S 68°00' E 000°00'0 0.0 040 / 10988.0 -5.0-7.3-1.8
2014-Dec-21 02:00S 68°00' E 000°00'0 0.0 060 / 12988.7 -5.3-6.8-1.8
2014-Dec-21 01:00S 68°00' E 000°00'6 6.4 060 / 10989.3 -5.3-6.8-1.8
2014-Dec-21 00:00S 67°54' E 000°06'6 6.4 030 / 10990.1 -5.0-6.4-1.8
2014-Dec-20 23:00S 67°48' E 000°00'0 0.0 050 / 10990.3 -5.6-6.3-1.8
2014-Dec-20 22:00S 67°48' E 000°00'6 6.4 070 / 8990.8 -5.7-6.5-1.8
2014-Dec-20 21:00S 67°42' E 000°06'6 6.0 040 / 8991.5 -5.4-6.2-1.8
2014-Dec-20 20:00S 67°36' E 000°06'0 0.0 040 / 6992.0 -5.7-6.3-1.8
2014-Dec-20 19:00S 67°36' E 000°06'0 0.0 020 / 4992.1 -5.1-5.9-1.8
2014-Dec-20 18:00S 67°36' E 000°06'0 0.0 010 / 4992.3 5.4 -5.2-5.8-1.8
2014-Dec-20 17:00S 67°36' E 000°06'0 0.0 340 / 2992.6 -4.7-5.2-1.8
2014-Dec-20 16:00S 67°36' E 000°06'0 0.0 320 / 2993.0 -4.5-4.9-1.8
2014-Dec-20 15:00S 67°36' E 000°06'0 0.0 300 / 4993.1 5.4 -4.6-4.9-1.8
2014-Dec-20 14:00S 67°36' E 000°06'0 0.0 260 / 4993.1 -4.4-4.5-1.8
2014-Dec-20 13:00S 67°36' E 000°06'0 0.0 240 / 2993.1 -4.7-4.9-1.8
2014-Dec-20 12:00S 67°36' E 000°06'0 0.0 280 / 4992.9 1.1 -5.0-5.3-1.8
2014-Dec-20 11:00S 67°36' E 000°06'0 0.0 280 / 8992.9 -4.7-5.1-1.7
2014-Dec-20 10:00S 67°36' E 000°06'6 3.2 280 / 6992.7 -4.4-4.6-1.7
2014-Dec-20 08:00S 67°30' E 000°00'6 6.0 290 / 10992.6 -6.2-6.6-1.8
2014-Dec-20 07:00S 67°24' E 000°00'12 6.0 280 / 10992.4 -6.2-6.9-1.7
2014-Dec-20 05:00S 67°12' E 000°00'6 6.0 280 / 6992.3 -5.6-6.1-1.8
2014-Dec-20 04:00S 67°06' E 000°00'6 6.0 260 / 6992.2 -5.2-5.5-1.8
2014-Dec-20 03:00S 67°00' E 000°00'0 0.0 250 / 6992.1 -4.9-5.5-1.8
2014-Dec-20 02:00S 67°00' E 000°00'0 0.0 230 / 4992.0 -3.7-6.3-1.8
2014-Dec-20 01:00S 67°00' E 000°00'0 0.0 210 / 6991.8 -3.9-6.6-1.8
2014-Dec-20 00:00S 67°00' E 000°00'0 0.0 200 / 12991.7 -3.6-6.7-1.7
2014-Dec-19 23:00S 67°00' E 000°00'6 6.4 210 / 12991.4 -3.0-5.9-1.8
2014-Dec-19 22:00S 66°54' W 000°06'6 6.0 250 / 12991.2 -2.8-4.3-1.8
2014-Dec-19 21:00S 66°48' W 000°06'6 6.5 240 / 12991.1 -2.7-4.4-1.8
2014-Dec-19 20:00S 66°42' W 000°12'6 6.5 240 / 12991.0 -2.3-4.7-1.7
2014-Dec-19 19:00S 66°36' W 000°06'6 6.5 230 / 12990.7 -2.0-4.4-1.6
2014-Dec-19 18:00S 66°30' E 000°00'0 0.0 230 / 12990.627.0 -1.7-4.3-1.6
2014-Dec-19 17:00S 66°30' E 000°00'0 0.0 230 / 12990.3 -1.7-4.7-1.6
2014-Dec-19 16:00S 66°30' E 000°00'0 0.0 230 / 17990.1 -1.6-5.2-1.6
2014-Dec-19 15:00S 66°30' E 000°00'0 0.0 230 / 17990.027.0 -1.7-5.4-1.6
2014-Dec-19 14:00S 66°30' E 000°00'0 0.0 240 / 17989.9 -1.6-5.6-1.4
2014-Dec-19 13:00S 66°30' E 000°00'0 0.0 250 / 14989.8 -2.0-5.2-1.6
2014-Dec-19 12:00S 66°30' E 000°00'0 0.0 260 / 12989.627.0 -2.6-4.6-1.6
2014-Dec-19 11:00S 66°30' E 000°00'0 0.0 260 / 12989.6 -3.1-4.6-1.5
2014-Dec-19 10:00S 66°30' E 000°00'0 0.0 260 / 10989.4 -2.8-3.8-1.6
2014-Dec-19 09:00S 66°30' E 000°00'0 0.0 250 / 10989.410.8 -3.2-4.3-1.6
2014-Dec-19 08:00S 66°30' E 000°00'0 0.0 260 / 8989.4 -3.7-4.9-1.6
2014-Dec-19 07:00S 66°30' E 000°00'5 4.8 250 / 8989.1 -4.3-4.9-1.6
2014-Dec-19 06:00S 66°30' W 000°12'2 2.4 230 / 8989.110.8 -4.7-5.2-1.7
2014-Dec-19 05:00S 66°30' W 000°06'6 6.5 220 / 8988.8 -5.1-5.6-1.7
2014-Dec-19 04:00S 66°24' E 000°00'   190 / 8988.5 -4.9-5.2-1.7

Dump ship's entire track history